sensor_id;sensor_type;location;lat;lon;timestamp;temperature;humidity
21778;DHT22;11050;52.222;20.916;2023-04-09T00:01:11;8.60;99.90
21778;DHT22;11050;52.222;20.916;2023-04-09T00:03:37;8.60;99.90
21778;DHT22;11050;52.222;20.916;2023-04-09T00:06:04;8.60;99.90
21778;DHT22;11050;52.222;20.916;2023-04-09T00:08:30;8.60;99.90
21778;DHT22;11050;52.222;20.916;2023-04-09T00:10:57;8.60;99.90
21778;DHT22;11050;52.222;20.916;2023-04-09T00:13:23;8.60;99.90
21778;DHT22;11050;52.222;20.916;2023-04-09T00:15:49;8.70;99.90
21778;DHT22;11050;52.222;20.916;2023-04-09T00:18:15;8.70;99.90
21778;DHT22;11050;52.222;20.916;2023-04-09T00:20:42;8.70;99.90
21778;DHT22;11050;52.222;20.916;2023-04-09T00:23:09;8.60;99.90
21778;DHT22;11050;52.222;20.916;2023-04-09T00:25:35;8.70;99.90
21778;DHT22;11050;52.222;20.916;2023-04-09T00:28:01;8.70;99.90
21778;DHT22;11050;52.222;20.916;2023-04-09T00:30:28;8.70;99.90
21778;DHT22;11050;52.222;20.916;2023-04-09T00:32:54;8.70;99.90
21778;DHT22;11050;52.222;20.916;2023-04-09T00:35:20;8.70;99.90
21778;DHT22;11050;52.222;20.916;2023-04-09T00:37:46;8.70;99.90
21778;DHT22;11050;52.222;20.916;2023-04-09T00:40:12;8.70;99.90
21778;DHT22;11050;52.222;20.916;2023-04-09T00:42:38;8.70;99.90
21778;DHT22;11050;52.222;20.916;2023-04-09T00:45:04;8.70;99.90
21778;DHT22;11050;52.222;20.916;2023-04-09T00:47:31;8.70;99.90
21778;DHT22;11050;52.222;20.916;2023-04-09T00:49:59;8.70;99.90
21778;DHT22;11050;52.222;20.916;2023-04-09T00:52:26;8.70;99.90
21778;DHT22;11050;52.222;20.916;2023-04-09T00:54:55;8.60;99.90
21778;DHT22;11050;52.222;20.916;2023-04-09T00:57:23;8.60;99.90
21778;DHT22;11050;52.222;20.916;2023-04-09T00:59:49;8.60;99.90
21778;DHT22;11050;52.222;20.916;2023-04-09T01:02:15;8.60;99.90
21778;DHT22;11050;52.222;20.916;2023-04-09T01:04:42;8.50;99.90
21778;DHT22;11050;52.222;20.916;2023-04-09T01:13:19;8.50;99.90
21778;DHT22;11050;52.222;20.916;2023-04-09T01:15:59;8.50;99.90
21778;DHT22;11050;52.222;20.916;2023-04-09T01:18:31;8.40;99.90
21778;DHT22;11050;52.222;20.916;2023-04-09T01:21:09;8.40;99.90
21778;DHT22;11050;52.222;20.916;2023-04-09T01:24:08;8.40;99.90
21778;DHT22;11050;52.222;20.916;2023-04-09T01:27:07;8.40;99.90
21778;DHT22;11050;52.222;20.916;2023-04-09T01:29:43;8.40;99.90
21778;DHT22;11050;52.222;20.916;2023-04-09T01:32:13;8.40;99.90
21778;DHT22;11050;52.222;20.916;2023-04-09T01:34:44;8.40;99.90
21778;DHT22;11050;52.222;20.916;2023-04-09T01:37:12;8.30;99.90
21778;DHT22;11050;52.222;20.916;2023-04-09T01:39:41;8.30;99.90
21778;DHT22;11050;52.222;20.916;2023-04-09T01:42:08;8.30;99.90
21778;DHT22;11050;52.222;20.916;2023-04-09T01:44:38;8.30;99.90
21778;DHT22;11050;52.222;20.916;2023-04-09T01:47:06;8.30;99.90
21778;DHT22;11050;52.222;20.916;2023-04-09T01:49:34;8.30;99.90
21778;DHT22;11050;52.222;20.916;2023-04-09T01:52:01;8.30;99.90
21778;DHT22;11050;52.222;20.916;2023-04-09T01:54:27;8.30;99.90
21778;DHT22;11050;52.222;20.916;2023-04-09T01:56:55;8.30;99.90
21778;DHT22;11050;52.222;20.916;2023-04-09T01:59:22;8.20;99.90
21778;DHT22;11050;52.222;20.916;2023-04-09T02:02:00;8.30;99.90
21778;DHT22;11050;52.222;20.916;2023-04-09T02:04:38;8.30;99.90
21778;DHT22;11050;52.222;20.916;2023-04-09T02:07:09;8.20;99.90
21778;DHT22;11050;52.222;20.916;2023-04-09T02:09:41;8.20;99.90
21778;DHT22;11050;52.222;20.916;2023-04-09T02:12:13;8.20;99.90
21778;DHT22;11050;52.222;20.916;2023-04-09T02:14:45;8.20;99.90
21778;DHT22;11050;52.222;20.916;2023-04-09T02:17:12;8.30;99.90
21778;DHT22;11050;52.222;20.916;2023-04-09T02:19:43;8.20;99.90
21778;DHT22;11050;52.222;20.916;2023-04-09T02:22:11;8.20;99.90
21778;DHT22;11050;52.222;20.916;2023-04-09T02:24:38;8.20;99.90
21778;DHT22;11050;52.222;20.916;2023-04-09T02:27:07;8.20;99.90
21778;DHT22;11050;52.222;20.916;2023-04-09T02:29:33;8.20;99.90
21778;DHT22;11050;52.222;20.916;2023-04-09T02:31:59;8.20;99.90
21778;DHT22;11050;52.222;20.916;2023-04-09T02:34:26;8.20;99.90
21778;DHT22;11050;52.222;20.916;2023-04-09T02:36:52;8.20;99.90
21778;DHT22;11050;52.222;20.916;2023-04-09T02:39:17;8.20;99.90
21778;DHT22;11050;52.222;20.916;2023-04-09T02:41:43;8.20;99.90
21778;DHT22;11050;52.222;20.916;2023-04-09T02:44:09;8.20;99.90
21778;DHT22;11050;52.222;20.916;2023-04-09T02:46:35;8.20;99.90
21778;DHT22;11050;52.222;20.916;2023-04-09T02:49:00;8.20;99.90
21778;DHT22;11050;52.222;20.916;2023-04-09T02:51:26;8.20;99.90
21778;DHT22;11050;52.222;20.916;2023-04-09T02:53:52;8.20;99.90
21778;DHT22;11050;52.222;20.916;2023-04-09T02:56:18;8.30;99.90
21778;DHT22;11050;52.222;20.916;2023-04-09T02:58:43;8.30;99.90
21778;DHT22;11050;52.222;20.916;2023-04-09T03:01:09;8.20;99.90
21778;DHT22;11050;52.222;20.916;2023-04-09T03:03:35;8.30;99.90
21778;DHT22;11050;52.222;20.916;2023-04-09T03:06:03;8.20;99.90
21778;DHT22;11050;52.222;20.916;2023-04-09T03:08:29;8.20;99.90
21778;DHT22;11050;52.222;20.916;2023-04-09T03:10:55;8.20;99.90
21778;DHT22;11050;52.222;20.916;2023-04-09T03:13:20;8.20;99.90
21778;DHT22;11050;52.222;20.916;2023-04-09T03:15:50;8.20;99.90
21778;DHT22;11050;52.222;20.916;2023-04-09T03:18:20;8.20;99.90
21778;DHT22;11050;52.222;20.916;2023-04-09T03:20:45;8.10;99.90
21778;DHT22;11050;52.222;20.916;2023-04-09T03:23:11;8.10;99.90
21778;DHT22;11050;52.222;20.916;2023-04-09T03:25:37;8.10;99.90
21778;DHT22;11050;52.222;20.916;2023-04-09T03:28:03;8.10;99.90
21778;DHT22;11050;52.222;20.916;2023-04-09T03:30:29;8.10;99.90
21778;DHT22;11050;52.222;20.916;2023-04-09T03:32:55;8.10;99.90
21778;DHT22;11050;52.222;20.916;2023-04-09T03:35:20;8.10;99.90
21778;DHT22;11050;52.222;20.916;2023-04-09T03:37:46;8.10;99.90
21778;DHT22;11050;52.222;20.916;2023-04-09T03:40:12;8.00;99.90
21778;DHT22;11050;52.222;20.916;2023-04-09T03:42:38;8.00;99.90
21778;DHT22;11050;52.222;20.916;2023-04-09T03:45:04;8.00;99.90
21778;DHT22;11050;52.222;20.916;2023-04-09T03:47:31;8.00;99.90
21778;DHT22;11050;52.222;20.916;2023-04-09T03:49:57;7.90;99.90
21778;DHT22;11050;52.222;20.916;2023-04-09T03:52:23;8.00;99.90
21778;DHT22;11050;52.222;20.916;2023-04-09T03:54:49;7.90;99.90
21778;DHT22;11050;52.222;20.916;2023-04-09T03:57:14;7.90;99.90
21778;DHT22;11050;52.222;20.916;2023-04-09T03:59:40;7.80;99.90
21778;DHT22;11050;52.222;20.916;2023-04-09T04:02:06;7.80;99.90
21778;DHT22;11050;52.222;20.916;2023-04-09T04:04:32;7.70;99.90
21778;DHT22;11050;52.222;20.916;2023-04-09T04:06:57;7.70;99.90
21778;DHT22;11050;52.222;20.916;2023-04-09T04:09:23;7.60;99.90
21778;DHT22;11050;52.222;20.916;2023-04-09T04:11:49;7.50;99.90
21778;DHT22;11050;52.222;20.916;2023-04-09T04:14:15;7.50;99.90
21778;DHT22;11050;52.222;20.916;2023-04-09T04:16:40;7.50;99.90
21778;DHT22;11050;52.222;20.916;2023-04-09T04:19:06;7.40;99.90
21778;DHT22;11050;52.222;20.916;2023-04-09T04:21:32;7.40;99.90
21778;DHT22;11050;52.222;20.916;2023-04-09T04:23:58;7.40;99.90
21778;DHT22;11050;52.222;20.916;2023-04-09T04:26:23;7.30;99.90
21778;DHT22;11050;52.222;20.916;2023-04-09T04:28:49;7.30;99.90
21778;DHT22;11050;52.222;20.916;2023-04-09T04:31:15;7.30;99.90
21778;DHT22;11050;52.222;20.916;2023-04-09T04:33:41;7.40;99.90
21778;DHT22;11050;52.222;20.916;2023-04-09T04:36:11;7.40;99.90
21778;DHT22;11050;52.222;20.916;2023-04-09T04:38:38;7.40;99.90
21778;DHT22;11050;52.222;20.916;2023-04-09T04:41:05;7.40;99.90
21778;DHT22;11050;52.222;20.916;2023-04-09T04:43:32;7.40;99.90
21778;DHT22;11050;52.222;20.916;2023-04-09T04:45:58;7.50;99.90
21778;DHT22;11050;52.222;20.916;2023-04-09T04:48:24;7.50;99.90
21778;DHT22;11050;52.222;20.916;2023-04-09T04:50:55;7.60;99.90
21778;DHT22;11050;52.222;20.916;2023-04-09T04:53:21;7.60;99.90
21778;DHT22;11050;52.222;20.916;2023-04-09T04:55:47;7.70;99.90
21778;DHT22;11050;52.222;20.916;2023-04-09T04:58:13;7.70;99.90
21778;DHT22;11050;52.222;20.916;2023-04-09T05:00:39;7.70;99.90
21778;DHT22;11050;52.222;20.916;2023-04-09T05:03:05;7.80;99.90
21778;DHT22;11050;52.222;20.916;2023-04-09T05:05:30;7.80;99.90
21778;DHT22;11050;52.222;20.916;2023-04-09T05:07:56;7.90;99.90
21778;DHT22;11050;52.222;20.916;2023-04-09T05:10:22;8.00;99.90
21778;DHT22;11050;52.222;20.916;2023-04-09T05:12:47;8.00;99.90
21778;DHT22;11050;52.222;20.916;2023-04-09T05:15:13;8.10;99.90
21778;DHT22;11050;52.222;20.916;2023-04-09T05:17:42;8.10;99.90
21778;DHT22;11050;52.222;20.916;2023-04-09T05:20:09;8.20;99.90
21778;DHT22;11050;52.222;20.916;2023-04-09T05:22:35;8.20;99.90
21778;DHT22;11050;52.222;20.916;2023-04-09T05:25:01;8.20;99.90
21778;DHT22;11050;52.222;20.916;2023-04-09T05:27:28;8.30;99.90
21778;DHT22;11050;52.222;20.916;2023-04-09T05:29:54;8.40;99.90
21778;DHT22;11050;52.222;20.916;2023-04-09T05:32:20;8.50;99.90
21778;DHT22;11050;52.222;20.916;2023-04-09T05:34:46;8.50;99.90
21778;DHT22;11050;52.222;20.916;2023-04-09T05:37:12;8.60;99.90
21778;DHT22;11050;52.222;20.916;2023-04-09T05:39:38;8.70;99.90
21778;DHT22;11050;52.222;20.916;2023-04-09T05:42:04;8.80;99.90
21778;DHT22;11050;52.222;20.916;2023-04-09T05:44:30;8.80;99.90
21778;DHT22;11050;52.222;20.916;2023-04-09T05:46:55;8.90;99.90
21778;DHT22;11050;52.222;20.916;2023-04-09T05:49:21;9.00;99.90
21778;DHT22;11050;52.222;20.916;2023-04-09T05:51:48;9.10;99.90
21778;DHT22;11050;52.222;20.916;2023-04-09T05:54:14;9.20;99.90
21778;DHT22;11050;52.222;20.916;2023-04-09T05:56:41;9.20;99.90
21778;DHT22;11050;52.222;20.916;2023-04-09T05:59:08;9.40;99.90
21778;DHT22;11050;52.222;20.916;2023-04-09T06:01:33;9.40;99.90
21778;DHT22;11050;52.222;20.916;2023-04-09T06:03:59;9.50;99.90
21778;DHT22;11050;52.222;20.916;2023-04-09T06:06:25;9.60;99.90
21778;DHT22;11050;52.222;20.916;2023-04-09T06:08:51;9.60;99.90
21778;DHT22;11050;52.222;20.916;2023-04-09T06:11:17;9.70;99.90
21778;DHT22;11050;52.222;20.916;2023-04-09T06:13:43;9.80;99.90
21778;DHT22;11050;52.222;20.916;2023-04-09T06:16:09;9.90;99.90
21778;DHT22;11050;52.222;20.916;2023-04-09T06:18:35;10.00;99.90
21778;DHT22;11050;52.222;20.916;2023-04-09T06:21:06;10.00;99.90
21778;DHT22;11050;52.222;20.916;2023-04-09T06:23:34;10.10;99.90
21778;DHT22;11050;52.222;20.916;2023-04-09T06:26:00;10.10;99.90
21778;DHT22;11050;52.222;20.916;2023-04-09T06:28:29;10.20;99.90
21778;DHT22;11050;52.222;20.916;2023-04-09T06:30:56;10.20;99.90
21778;DHT22;11050;52.222;20.916;2023-04-09T06:33:23;10.30;99.90
21778;DHT22;11050;52.222;20.916;2023-04-09T06:35:49;10.40;99.90
21778;DHT22;11050;52.222;20.916;2023-04-09T06:38:15;10.50;99.90
21778;DHT22;11050;52.222;20.916;2023-04-09T06:40:41;10.50;99.90
21778;DHT22;11050;52.222;20.916;2023-04-09T06:43:07;10.60;99.90
21778;DHT22;11050;52.222;20.916;2023-04-09T06:45:34;10.70;99.90
21778;DHT22;11050;52.222;20.916;2023-04-09T06:48:02;10.80;99.90
21778;DHT22;11050;52.222;20.916;2023-04-09T06:50:28;10.80;99.90
21778;DHT22;11050;52.222;20.916;2023-04-09T06:52:55;10.90;99.90
21778;DHT22;11050;52.222;20.916;2023-04-09T06:55:21;11.00;99.90
21778;DHT22;11050;52.222;20.916;2023-04-09T06:57:47;11.10;99.90
21778;DHT22;11050;52.222;20.916;2023-04-09T07:00:13;11.10;99.90
21778;DHT22;11050;52.222;20.916;2023-04-09T07:02:39;11.20;99.90
21778;DHT22;11050;52.222;20.916;2023-04-09T07:05:05;11.30;99.90
21778;DHT22;11050;52.222;20.916;2023-04-09T07:07:31;11.40;99.90
21778;DHT22;11050;52.222;20.916;2023-04-09T07:09:56;11.40;99.90
21778;DHT22;11050;52.222;20.916;2023-04-09T07:12:26;11.60;99.90
21778;DHT22;11050;52.222;20.916;2023-04-09T07:14:57;11.60;99.90
21778;DHT22;11050;52.222;20.916;2023-04-09T07:17:23;11.70;99.90
21778;DHT22;11050;52.222;20.916;2023-04-09T07:19:49;11.80;99.90
21778;DHT22;11050;52.222;20.916;2023-04-09T07:22:16;11.90;99.90
21778;DHT22;11050;52.222;20.916;2023-04-09T07:24:42;12.00;99.90
21778;DHT22;11050;52.222;20.916;2023-04-09T07:27:08;12.10;99.90
21778;DHT22;11050;52.222;20.916;2023-04-09T07:29:35;12.10;99.90
21778;DHT22;11050;52.222;20.916;2023-04-09T07:32:01;12.10;99.90
21778;DHT22;11050;52.222;20.916;2023-04-09T07:34:27;12.20;99.90
21778;DHT22;11050;52.222;20.916;2023-04-09T07:36:53;12.30;99.90
21778;DHT22;11050;52.222;20.916;2023-04-09T07:39:20;12.40;99.90
21778;DHT22;11050;52.222;20.916;2023-04-09T07:41:46;12.60;99.90
21778;DHT22;11050;52.222;20.916;2023-04-09T07:44:13;12.70;99.90
21778;DHT22;11050;52.222;20.916;2023-04-09T07:46:39;12.80;99.90
21778;DHT22;11050;52.222;20.916;2023-04-09T07:49:05;12.90;99.90
21778;DHT22;11050;52.222;20.916;2023-04-09T07:51:31;12.90;99.90
21778;DHT22;11050;52.222;20.916;2023-04-09T07:53:57;13.00;99.90
21778;DHT22;11050;52.222;20.916;2023-04-09T07:56:23;13.10;99.90
21778;DHT22;11050;52.222;20.916;2023-04-09T07:58:51;13.20;99.90
21778;DHT22;11050;52.222;20.916;2023-04-09T08:01:17;13.30;99.90
21778;DHT22;11050;52.222;20.916;2023-04-09T08:03:45;13.50;99.90
21778;DHT22;11050;52.222;20.916;2023-04-09T08:06:11;13.60;99.90
21778;DHT22;11050;52.222;20.916;2023-04-09T08:08:37;13.70;99.90
21778;DHT22;11050;52.222;20.916;2023-04-09T08:11:03;13.70;99.90
21778;DHT22;11050;52.222;20.916;2023-04-09T08:13:29;13.70;99.90
21778;DHT22;11050;52.222;20.916;2023-04-09T08:15:55;13.80;99.90
21778;DHT22;11050;52.222;20.916;2023-04-09T08:18:21;13.80;99.90
21778;DHT22;11050;52.222;20.916;2023-04-09T08:20:46;13.90;99.90
21778;DHT22;11050;52.222;20.916;2023-04-09T08:23:12;14.00;99.90
21778;DHT22;11050;52.222;20.916;2023-04-09T08:25:38;14.10;99.90
21778;DHT22;11050;52.222;20.916;2023-04-09T08:28:04;14.20;99.90
21778;DHT22;11050;52.222;20.916;2023-04-09T08:30:30;14.20;99.90
21778;DHT22;11050;52.222;20.916;2023-04-09T08:32:59;14.40;99.90
21778;DHT22;11050;52.222;20.916;2023-04-09T08:35:25;14.40;99.90
21778;DHT22;11050;52.222;20.916;2023-04-09T08:37:54;14.50;99.90
21778;DHT22;11050;52.222;20.916;2023-04-09T08:40:21;14.60;99.90
21778;DHT22;11050;52.222;20.916;2023-04-09T08:42:53;14.70;99.90
21778;DHT22;11050;52.222;20.916;2023-04-09T08:45:23;14.70;99.90
21778;DHT22;11050;52.222;20.916;2023-04-09T08:47:50;14.80;99.90
21778;DHT22;11050;52.222;20.916;2023-04-09T08:50:16;14.80;99.90
21778;DHT22;11050;52.222;20.916;2023-04-09T08:52:42;14.80;99.40
21778;DHT22;11050;52.222;20.916;2023-04-09T08:55:11;14.90;99.30
21778;DHT22;11050;52.222;20.916;2023-04-09T08:57:38;14.90;97.70
21778;DHT22;11050;52.222;20.916;2023-04-09T09:00:05;14.90;97.70
21778;DHT22;11050;52.222;20.916;2023-04-09T09:02:32;14.90;97.30
21778;DHT22;11050;52.222;20.916;2023-04-09T09:04:59;14.90;97.40
21778;DHT22;11050;52.222;20.916;2023-04-09T09:07:27;14.90;96.30
21778;DHT22;11050;52.222;20.916;2023-04-09T09:09:58;14.90;95.90
21778;DHT22;11050;52.222;20.916;2023-04-09T09:12:38;14.80;96.60
21778;DHT22;11050;52.222;20.916;2023-04-09T09:15:24;14.80;96.30
21778;DHT22;11050;52.222;20.916;2023-04-09T09:17:58;14.70;96.50
21778;DHT22;11050;52.222;20.916;2023-04-09T09:20:25;14.70;96.50
21778;DHT22;11050;52.222;20.916;2023-04-09T09:22:53;14.70;96.40
21778;DHT22;11050;52.222;20.916;2023-04-09T09:25:20;14.60;95.60
21778;DHT22;11050;52.222;20.916;2023-04-09T09:27:50;14.60;96.20
21778;DHT22;11050;52.222;20.916;2023-04-09T09:30:21;14.60;96.50
21778;DHT22;11050;52.222;20.916;2023-04-09T09:32:52;14.70;96.00
21778;DHT22;11050;52.222;20.916;2023-04-09T09:35:19;14.70;96.80
21778;DHT22;11050;52.222;20.916;2023-04-09T09:37:45;14.80;96.80
21778;DHT22;11050;52.222;20.916;2023-04-09T09:40:25;14.90;96.50
21778;DHT22;11050;52.222;20.916;2023-04-09T09:42:55;15.00;96.10
21778;DHT22;11050;52.222;20.916;2023-04-09T09:45:23;15.10;95.50
21778;DHT22;11050;52.222;20.916;2023-04-09T09:47:51;15.10;95.20
21778;DHT22;11050;52.222;20.916;2023-04-09T09:50:20;15.20;95.20
21778;DHT22;11050;52.222;20.916;2023-04-09T09:52:49;15.30;94.40
21778;DHT22;11050;52.222;20.916;2023-04-09T09:55:24;15.40;93.80
21778;DHT22;11050;52.222;20.916;2023-04-09T09:57:55;15.50;93.70
21778;DHT22;11050;52.222;20.916;2023-04-09T10:00:26;15.60;93.70
21778;DHT22;11050;52.222;20.916;2023-04-09T10:02:58;15.70;93.20
21778;DHT22;11050;52.222;20.916;2023-04-09T10:05:33;15.90;92.80
21778;DHT22;11050;52.222;20.916;2023-04-09T10:08:01;16.10;92.60
21778;DHT22;11050;52.222;20.916;2023-04-09T10:10:29;16.20;91.10
21778;DHT22;11050;52.222;20.916;2023-04-09T10:12:56;16.40;90.50
21778;DHT22;11050;52.222;20.916;2023-04-09T10:15:23;16.40;90.30
21778;DHT22;11050;52.222;20.916;2023-04-09T10:17:53;16.50;90.50
21778;DHT22;11050;52.222;20.916;2023-04-09T10:21:00;16.60;89.30
21778;DHT22;11050;52.222;20.916;2023-04-09T10:23:39;16.70;89.00
21778;DHT22;11050;52.222;20.916;2023-04-09T10:26:07;16.80;87.90
21778;DHT22;11050;52.222;20.916;2023-04-09T10:28:33;17.00;86.30
21778;DHT22;11050;52.222;20.916;2023-04-09T10:31:03;17.00;85.30
21778;DHT22;11050;52.222;20.916;2023-04-09T10:33:31;17.10;86.20
21778;DHT22;11050;52.222;20.916;2023-04-09T10:36:04;17.10;85.20
21778;DHT22;11050;52.222;20.916;2023-04-09T10:41:24;17.10;84.50
21778;DHT22;11050;52.222;20.916;2023-04-09T10:43:52;17.20;84.30
21778;DHT22;11050;52.222;20.916;2023-04-09T10:46:34;17.30;84.60
21778;DHT22;11050;52.222;20.916;2023-04-09T10:49:14;17.40;81.90
21778;DHT22;11050;52.222;20.916;2023-04-09T10:52:03;17.50;81.50
21778;DHT22;11050;52.222;20.916;2023-04-09T10:54:38;17.50;81.50
21778;DHT22;11050;52.222;20.916;2023-04-09T10:59:47;17.40;80.70
21778;DHT22;11050;52.222;20.916;2023-04-09T11:08:10;17.10;82.00
21778;DHT22;11050;52.222;20.916;2023-04-09T11:10:41;17.00;81.90
21778;DHT22;11050;52.222;20.916;2023-04-09T11:13:21;16.90;82.50
21778;DHT22;11050;52.222;20.916;2023-04-09T11:15:46;16.80;82.20
21778;DHT22;11050;52.222;20.916;2023-04-09T11:18:20;16.80;82.90
21778;DHT22;11050;52.222;20.916;2023-04-09T11:20:46;16.70;84.20
21778;DHT22;11050;52.222;20.916;2023-04-09T11:23:13;16.70;84.00
21778;DHT22;11050;52.222;20.916;2023-04-09T11:25:40;16.70;83.60
21778;DHT22;11050;52.222;20.916;2023-04-09T11:28:06;16.70;82.80
21778;DHT22;11050;52.222;20.916;2023-04-09T11:30:33;16.70;82.90
21778;DHT22;11050;52.222;20.916;2023-04-09T11:33:00;16.80;83.80
21778;DHT22;11050;52.222;20.916;2023-04-09T11:35:26;17.00;85.70
21778;DHT22;11050;52.222;20.916;2023-04-09T11:37:52;17.10;84.60
21778;DHT22;11050;52.222;20.916;2023-04-09T11:40:19;17.30;84.60
21778;DHT22;11050;52.222;20.916;2023-04-09T11:42:51;17.50;84.00
21778;DHT22;11050;52.222;20.916;2023-04-09T11:45:21;17.80;80.80
21778;DHT22;11050;52.222;20.916;2023-04-09T11:47:48;18.10;78.70
21778;DHT22;11050;52.222;20.916;2023-04-09T11:50:15;18.30;79.80
21778;DHT22;11050;52.222;20.916;2023-04-09T11:52:43;18.60;76.70
21778;DHT22;11050;52.222;20.916;2023-04-09T11:55:10;18.80;75.60
21778;DHT22;11050;52.222;20.916;2023-04-09T11:57:44;18.80;74.40
21778;DHT22;11050;52.222;20.916;2023-04-09T12:00:15;18.70;74.80
21778;DHT22;11050;52.222;20.916;2023-04-09T12:02:46;18.60;73.60
21778;DHT22;11050;52.222;20.916;2023-04-09T12:05:24;18.40;74.10
21778;DHT22;11050;52.222;20.916;2023-04-09T12:07:57;18.20;74.50
21778;DHT22;11050;52.222;20.916;2023-04-09T12:10:27;18.20;73.70
21778;DHT22;11050;52.222;20.916;2023-04-09T12:12:59;18.60;73.70
21778;DHT22;11050;52.222;20.916;2023-04-09T12:15:31;19.10;73.70
21778;DHT22;11050;52.222;20.916;2023-04-09T12:18:12;19.60;70.70
21778;DHT22;11050;52.222;20.916;2023-04-09T12:20:42;20.10;68.10
21778;DHT22;11050;52.222;20.916;2023-04-09T12:23:10;20.50;65.80
21778;DHT22;11050;52.222;20.916;2023-04-09T12:25:39;20.60;64.50
21778;DHT22;11050;52.222;20.916;2023-04-09T12:28:08;20.70;64.30
21778;DHT22;11050;52.222;20.916;2023-04-09T12:30:36;21.00;64.90
21778;DHT22;11050;52.222;20.916;2023-04-09T12:33:03;21.30;62.50
21778;DHT22;11050;52.222;20.916;2023-04-09T12:35:29;21.40;61.50
21778;DHT22;11050;52.222;20.916;2023-04-09T12:37:55;21.40;60.30
21778;DHT22;11050;52.222;20.916;2023-04-09T12:40:21;21.20;60.00
21778;DHT22;11050;52.222;20.916;2023-04-09T12:42:47;20.90;60.80
21778;DHT22;11050;52.222;20.916;2023-04-09T12:45:17;20.60;61.30
21778;DHT22;11050;52.222;20.916;2023-04-09T12:47:44;20.20;61.80
21778;DHT22;11050;52.222;20.916;2023-04-09T12:50:14;19.80;62.40
21778;DHT22;11050;52.222;20.916;2023-04-09T12:52:41;19.60;64.00
21778;DHT22;11050;52.222;20.916;2023-04-09T12:55:08;19.60;64.60
21778;DHT22;11050;52.222;20.916;2023-04-09T12:57:36;19.80;64.40
21778;DHT22;11050;52.222;20.916;2023-04-09T13:00:03;20.10;62.60
21778;DHT22;11050;52.222;20.916;2023-04-09T13:02:30;20.20;61.50
21778;DHT22;11050;52.222;20.916;2023-04-09T13:04:56;20.30;61.40
21778;DHT22;11050;52.222;20.916;2023-04-09T13:07:21;20.10;60.10
21778;DHT22;11050;52.222;20.916;2023-04-09T13:09:48;20.00;60.40
21778;DHT22;11050;52.222;20.916;2023-04-09T13:12:15;19.80;60.90
21778;DHT22;11050;52.222;20.916;2023-04-09T13:14:45;19.60;60.80
21778;DHT22;11050;52.222;20.916;2023-04-09T13:17:13;19.40;61.90
21778;DHT22;11050;52.222;20.916;2023-04-09T13:19:39;19.20;62.70
21778;DHT22;11050;52.222;20.916;2023-04-09T13:22:06;19.00;64.00
21778;DHT22;11050;52.222;20.916;2023-04-09T13:24:34;18.80;64.60
21778;DHT22;11050;52.222;20.916;2023-04-09T13:27:00;18.60;64.90
21778;DHT22;11050;52.222;20.916;2023-04-09T13:29:27;18.40;66.50
21778;DHT22;11050;52.222;20.916;2023-04-09T13:31:55;18.20;67.80
21778;DHT22;11050;52.222;20.916;2023-04-09T13:34:25;18.00;71.10
21778;DHT22;11050;52.222;20.916;2023-04-09T13:36:51;17.60;74.20
21778;DHT22;11050;52.222;20.916;2023-04-09T13:39:16;17.30;77.90
21778;DHT22;11050;52.222;20.916;2023-04-09T13:41:42;16.90;80.90
21778;DHT22;11050;52.222;20.916;2023-04-09T13:44:08;16.60;83.90
21778;DHT22;11050;52.222;20.916;2023-04-09T13:46:34;16.20;87.00
21778;DHT22;11050;52.222;20.916;2023-04-09T13:48:59;15.80;89.90
21778;DHT22;11050;52.222;20.916;2023-04-09T13:51:26;15.60;90.40
21778;DHT22;11050;52.222;20.916;2023-04-09T13:53:54;15.30;91.40
21778;DHT22;11050;52.222;20.916;2023-04-09T13:56:20;15.10;92.60
21778;DHT22;11050;52.222;20.916;2023-04-09T13:58:45;14.80;93.40
21778;DHT22;11050;52.222;20.916;2023-04-09T14:01:12;14.60;94.70
21778;DHT22;11050;52.222;20.916;2023-04-09T14:03:38;14.40;95.40
21778;DHT22;11050;52.222;20.916;2023-04-09T14:06:06;14.30;96.40
21778;DHT22;11050;52.222;20.916;2023-04-09T14:08:35;14.20;97.20
21778;DHT22;11050;52.222;20.916;2023-04-09T14:11:01;14.20;97.70
21778;DHT22;11050;52.222;20.916;2023-04-09T14:13:28;14.20;98.50
21778;DHT22;11050;52.222;20.916;2023-04-09T14:15:54;14.20;98.90
21778;DHT22;11050;52.222;20.916;2023-04-09T14:18:20;14.20;98.80
21778;DHT22;11050;52.222;20.916;2023-04-09T14:20:46;14.20;98.60
21778;DHT22;11050;52.222;20.916;2023-04-09T14:23:11;14.30;98.20
21778;DHT22;11050;52.222;20.916;2023-04-09T14:25:37;14.30;97.80
21778;DHT22;11050;52.222;20.916;2023-04-09T14:28:03;14.40;98.40
21778;DHT22;11050;52.222;20.916;2023-04-09T14:30:29;14.50;99.90
21778;DHT22;11050;52.222;20.916;2023-04-09T14:32:55;14.50;99.80
21778;DHT22;11050;52.222;20.916;2023-04-09T14:35:20;14.60;99.70
21778;DHT22;11050;52.222;20.916;2023-04-09T14:37:46;14.70;99.40
21778;DHT22;11050;52.222;20.916;2023-04-09T14:40:12;14.70;98.00
21778;DHT22;11050;52.222;20.916;2023-04-09T14:42:39;14.70;97.70
21778;DHT22;11050;52.222;20.916;2023-04-09T14:45:06;14.80;97.60
21778;DHT22;11050;52.222;20.916;2023-04-09T14:47:32;14.70;96.40
21778;DHT22;11050;52.222;20.916;2023-04-09T14:49:58;14.70;96.10
21778;DHT22;11050;52.222;20.916;2023-04-09T14:52:23;14.70;96.00
21778;DHT22;11050;52.222;20.916;2023-04-09T14:54:50;14.60;96.40
21778;DHT22;11050;52.222;20.916;2023-04-09T14:57:15;14.60;96.30
21778;DHT22;11050;52.222;20.916;2023-04-09T14:59:41;14.50;96.10
21778;DHT22;11050;52.222;20.916;2023-04-09T15:02:07;14.60;96.20
21778;DHT22;11050;52.222;20.916;2023-04-09T15:04:33;14.50;96.30
21778;DHT22;11050;52.222;20.916;2023-04-09T15:06:58;14.50;96.00
21778;DHT22;11050;52.222;20.916;2023-04-09T15:09:24;14.50;95.70
21778;DHT22;11050;52.222;20.916;2023-04-09T15:11:50;14.60;95.70
21778;DHT22;11050;52.222;20.916;2023-04-09T15:14:18;14.70;95.70
21778;DHT22;11050;52.222;20.916;2023-04-09T15:16:45;14.70;95.60
21778;DHT22;11050;52.222;20.916;2023-04-09T15:19:11;14.80;95.10
21778;DHT22;11050;52.222;20.916;2023-04-09T15:21:37;14.80;94.90
21778;DHT22;11050;52.222;20.916;2023-04-09T15:24:02;14.90;94.70
21778;DHT22;11050;52.222;20.916;2023-04-09T15:26:28;15.00;94.40
21778;DHT22;11050;52.222;20.916;2023-04-09T15:29:02;15.20;94.30
21778;DHT22;11050;52.222;20.916;2023-04-09T15:31:31;15.40;94.70
21778;DHT22;11050;52.222;20.916;2023-04-09T15:33:57;15.50;94.00
21778;DHT22;11050;52.222;20.916;2023-04-09T15:36:23;15.60;93.70
21778;DHT22;11050;52.222;20.916;2023-04-09T15:38:52;15.80;93.10
21778;DHT22;11050;52.222;20.916;2023-04-09T15:41:18;16.10;92.80
21778;DHT22;11050;52.222;20.916;2023-04-09T15:43:46;16.60;92.00